sensor_id;sensor_type;location;lat;lon;timestamp;P1;durP1;ratioP1;P2;durP2;ratioP2
43154;SDS011;34212;51.018;13.586;2023-04-16T05:02:54;20.02;;;13.90;;
43154;SDS011;34212;51.018;13.586;2023-04-16T05:07:55;17.00;;;14.50;;
43154;SDS011;34212;51.018;13.586;2023-04-16T05:12:57;16.63;;;12.75;;
43154;SDS011;34212;51.018;13.586;2023-04-16T05:17:58;19.23;;;14.75;;
43154;SDS011;34212;51.018;13.586;2023-04-16T05:23:00;18.98;;;12.88;;
43154;SDS011;34212;51.018;13.586;2023-04-16T05:28:01;15.70;;;13.00;;
43154;SDS011;34212;51.018;13.586;2023-04-16T05:33:03;18.10;;;14.05;;
43154;SDS011;34212;51.018;13.586;2023-04-16T05:38:05;17.73;;;13.98;;
43154;SDS011;34212;51.018;13.586;2023-04-16T05:43:07;17.67;;;14.10;;
43154;SDS011;34212;51.018;13.586;2023-04-16T05:48:08;16.35;;;13.20;;
43154;SDS011;34212;51.018;13.586;2023-04-16T05:53:10;17.42;;;13.68;;
43154;SDS011;34212;51.018;13.586;2023-04-16T05:58:15;17.17;;;13.75;;
43154;SDS011;34212;51.018;13.586;2023-04-16T06:03:17;18.98;;;14.32;;
43154;SDS011;34212;51.018;13.586;2023-04-16T06:08:18;19.13;;;13.93;;
43154;SDS011;34212;51.018;13.586;2023-04-16T06:13:20;19.52;;;15.65;;
43154;SDS011;34212;51.018;13.586;2023-04-16T06:18:21;20.13;;;16.48;;
43154;SDS011;34212;51.018;13.586;2023-04-16T06:23:23;22.40;;;16.75;;
43154;SDS011;34212;51.018;13.586;2023-04-16T06:28:25;22.20;;;17.38;;
43154;SDS011;34212;51.018;13.586;2023-04-16T06:33:26;21.45;;;16.13;;
43154;SDS011;34212;51.018;13.586;2023-04-16T06:38:28;20.92;;;15.98;;
43154;SDS011;34212;51.018;13.586;2023-04-16T06:43:29;21.30;;;16.38;;
43154;SDS011;34212;51.018;13.586;2023-04-16T06:48:33;23.70;;;17.10;;
43154;SDS011;34212;51.018;13.586;2023-04-16T06:53:35;22.67;;;17.27;;
43154;SDS011;34212;51.018;13.586;2023-04-16T06:58:37;21.45;;;16.52;;
43154;SDS011;34212;51.018;13.586;2023-04-16T07:03:39;18.85;;;16.02;;
43154;SDS011;34212;51.018;13.586;2023-04-16T07:08:40;22.02;;;17.30;;
43154;SDS011;34212;51.018;13.586;2023-04-16T07:13:42;19.45;;;16.17;;
43154;SDS011;34212;51.018;13.586;2023-04-16T07:18:44;19.30;;;15.23;;
43154;SDS011;34212;51.018;13.586;2023-04-16T07:23:45;20.00;;;15.55;;
43154;SDS011;34212;51.018;13.586;2023-04-16T07:28:47;18.33;;;13.45;;
43154;SDS011;34212;51.018;13.586;2023-04-16T07:33:48;18.15;;;14.00;;
43154;SDS011;34212;51.018;13.586;2023-04-16T07:38:50;16.45;;;13.43;;
43154;SDS011;34212;51.018;13.586;2023-04-16T07:43:51;13.80;;;10.98;;
43154;SDS011;34212;51.018;13.586;2023-04-16T07:48:53;16.65;;;12.25;;
43154;SDS011;34212;51.018;13.586;2023-04-16T07:53:54;15.93;;;11.98;;
43154;SDS011;34212;51.018;13.586;2023-04-16T07:58:56;10.63;;;9.15;;
43154;SDS011;34212;51.018;13.586;2023-04-16T08:04:03;13.13;;;10.77;;
43154;SDS011;34212;51.018;13.586;2023-04-16T08:09:05;14.40;;;12.77;;
43154;SDS011;34212;51.018;13.586;2023-04-16T08:14:06;15.75;;;13.20;;
43154;SDS011;34212;51.018;13.586;2023-04-16T08:19:08;15.53;;;13.43;;
43154;SDS011;34212;51.018;13.586;2023-04-16T08:24:10;14.60;;;12.63;;
43154;SDS011;34212;51.018;13.586;2023-04-16T08:29:12;14.38;;;12.25;;
43154;SDS011;34212;51.018;13.586;2023-04-16T08:34:13;13.30;;;10.00;;
43154;SDS011;34212;51.018;13.586;2023-04-16T08:39:15;13.57;;;11.52;;
43154;SDS011;34212;51.018;13.586;2023-04-16T08:44:22;12.23;;;10.48;;
43154;SDS011;34212;51.018;13.586;2023-04-16T08:49:27;12.40;;;10.65;;
43154;SDS011;34212;51.018;13.586;2023-04-16T08:54:41;13.47;;;11.90;;
43154;SDS011;34212;51.018;13.586;2023-04-16T08:59:57;16.70;;;14.55;;
43154;SDS011;34212;51.018;13.586;2023-04-16T09:05:01;15.90;;;12.40;;
43154;SDS011;34212;51.018;13.586;2023-04-16T09:10:05;15.77;;;13.40;;
43154;SDS011;34212;51.018;13.586;2023-04-16T09:15:08;15.88;;;14.07;;
43154;SDS011;34212;51.018;13.586;2023-04-16T09:20:11;15.07;;;13.07;;
43154;SDS011;34212;51.018;13.586;2023-04-16T09:25:13;17.40;;;11.75;;
43154;SDS011;34212;51.018;13.586;2023-04-16T09:30:18;13.57;;;11.75;;
43154;SDS011;34212;51.018;13.586;2023-04-16T09:35:23;12.98;;;11.68;;
43154;SDS011;34212;51.018;13.586;2023-04-16T09:40:26;12.40;;;10.98;;
43154;SDS011;34212;51.018;13.586;2023-04-16T09:45:30;11.88;;;10.48;;
43154;SDS011;34212;51.018;13.586;2023-04-16T09:50:32;11.57;;;10.32;;
43154;SDS011;34212;51.018;13.586;2023-04-16T09:55:34;12.27;;;9.32;;
43154;SDS011;34212;51.018;13.586;2023-04-16T10:00:36;10.82;;;8.00;;
43154;SDS011;34212;51.018;13.586;2023-04-16T10:05:43;12.45;;;8.60;;
43154;SDS011;34212;51.018;13.586;2023-04-16T10:10:45;10.40;;;8.50;;
43154;SDS011;34212;51.018;13.586;2023-04-16T10:15:47;8.90;;;7.17;;
43154;SDS011;34212;51.018;13.586;2023-04-16T10:20:50;12.40;;;10.85;;
43154;SDS011;34212;51.018;13.586;2023-04-16T10:25:52;11.73;;;10.43;;
43154;SDS011;34212;51.018;13.586;2023-04-16T10:30:57;10.70;;;9.60;;
43154;SDS011;34212;51.018;13.586;2023-04-16T10:36:11;11.68;;;9.85;;
43154;SDS011;34212;51.018;13.586;2023-04-16T10:46:16;17.27;;;11.70;;
43154;SDS011;34212;51.018;13.586;2023-04-16T10:51:25;13.18;;;10.73;;
43154;SDS011;34212;51.018;13.586;2023-04-16T10:56:35;10.18;;;9.15;;
43154;SDS011;34212;51.018;13.586;2023-04-16T11:01:40;9.98;;;8.98;;
43154;SDS011;34212;51.018;13.586;2023-04-16T11:06:43;10.82;;;9.68;;
43154;SDS011;34212;51.018;13.586;2023-04-16T11:12:02;9.90;;;8.90;;
43154;SDS011;34212;51.018;13.586;2023-04-16T11:17:08;10.60;;;8.75;;
43154;SDS011;34212;51.018;13.586;2023-04-16T11:22:13;9.05;;;8.00;;
43154;SDS011;34212;51.018;13.586;2023-04-16T11:27:17;9.55;;;8.02;;
43154;SDS011;34212;51.018;13.586;2023-04-16T11:32:19;6.77;;;6.07;;
43154;SDS011;34212;51.018;13.586;2023-04-16T11:42:37;7.20;;;6.30;;
43154;SDS011;34212;51.018;13.586;2023-04-16T11:47:44;6.68;;;5.75;;
43154;SDS011;34212;51.018;13.586;2023-04-16T11:52:53;6.65;;;5.30;;
43154;SDS011;34212;51.018;13.586;2023-04-16T11:57:56;6.90;;;5.65;;
43154;SDS011;34212;51.018;13.586;2023-04-16T12:02:57;6.27;;;5.37;;
43154;SDS011;34212;51.018;13.586;2023-04-16T12:08:00;8.50;;;6.57;;
43154;SDS011;34212;51.018;13.586;2023-04-16T12:18:11;9.00;;;6.60;;
43154;SDS011;34212;51.018;13.586;2023-04-16T12:23:32;7.97;;;6.57;;
43154;SDS011;34212;51.018;13.586;2023-04-16T12:28:34;6.93;;;5.95;;
43154;SDS011;34212;51.018;13.586;2023-04-16T12:33:38;7.88;;;6.97;;
43154;SDS011;34212;51.018;13.586;2023-04-16T12:38:40;7.60;;;6.73;;
43154;SDS011;34212;51.018;13.586;2023-04-16T12:43:41;7.07;;;6.22;;
43154;SDS011;34212;51.018;13.586;2023-04-16T12:48:43;5.80;;;5.22;;
43154;SDS011;34212;51.018;13.586;2023-04-16T12:53:44;7.23;;;6.43;;
43154;SDS011;34212;51.018;13.586;2023-04-16T12:58:46;8.10;;;6.20;;
43154;SDS011;34212;51.018;13.586;2023-04-16T13:03:50;7.90;;;6.95;;
43154;SDS011;34212;51.018;13.586;2023-04-16T13:08:52;7.30;;;5.78;;
43154;SDS011;34212;51.018;13.586;2023-04-16T13:13:54;6.63;;;5.93;;
43154;SDS011;34212;51.018;13.586;2023-04-16T13:18:55;7.77;;;5.60;;
43154;SDS011;34212;51.018;13.586;2023-04-16T13:23:57;6.27;;;5.63;;
43154;SDS011;34212;51.018;13.586;2023-04-16T13:28:59;6.78;;;5.47;;
43154;SDS011;34212;51.018;13.586;2023-04-16T13:34:01;6.13;;;5.53;;
43154;SDS011;34212;51.018;13.586;2023-04-16T13:39:03;9.65;;;6.35;;
43154;SDS011;34212;51.018;13.586;2023-04-16T13:44:10;7.18;;;6.22;;
43154;SDS011;34212;51.018;13.586;2023-04-16T13:49:12;7.80;;;7.00;;
43154;SDS011;34212;51.018;13.586;2023-04-16T13:54:14;8.38;;;7.53;;
43154;SDS011;34212;51.018;13.586;2023-04-16T13:59:16;8.87;;;6.80;;
43154;SDS011;34212;51.018;13.586;2023-04-16T14:09:20;7.65;;;6.85;;
43154;SDS011;34212;51.018;13.586;2023-04-16T14:14:21;9.52;;;6.32;;
43154;SDS011;34212;51.018;13.586;2023-04-16T14:19:22;5.47;;;4.87;;
43154;SDS011;34212;51.018;13.586;2023-04-16T14:24:24;5.75;;;5.05;;
43154;SDS011;34212;51.018;13.586;2023-04-16T14:29:26;5.47;;;4.73;;
43154;SDS011;34212;51.018;13.586;2023-04-16T14:34:27;5.80;;;4.93;;
43154;SDS011;34212;51.018;13.586;2023-04-16T14:39:29;6.70;;;5.33;;
43154;SDS011;34212;51.018;13.586;2023-04-16T14:44:31;5.68;;;5.05;;
43154;SDS011;34212;51.018;13.586;2023-04-16T14:49:33;6.93;;;4.65;;
43154;SDS011;34212;51.018;13.586;2023-04-16T14:54:34;4.55;;;3.95;;
43154;SDS011;34212;51.018;13.586;2023-04-16T14:59:36;5.10;;;4.50;;
43154;SDS011;34212;51.018;13.586;2023-04-16T15:04:38;4.63;;;3.97;;
43154;SDS011;34212;51.018;13.586;2023-04-16T15:09:39;4.13;;;3.73;;
43154;SDS011;34212;51.018;13.586;2023-04-16T15:14:41;4.43;;;3.33;;
43154;SDS011;34212;51.018;13.586;2023-04-16T15:19:43;4.03;;;3.28;;
43154;SDS011;34212;51.018;13.586;2023-04-16T15:24:44;3.90;;;3.50;;
43154;SDS011;34212;51.018;13.586;2023-04-16T15:29:46;4.70;;;3.43;;
43154;SDS011;34212;51.018;13.586;2023-04-16T15:34:49;3.03;;;2.72;;
43154;SDS011;34212;51.018;13.586;2023-04-16T15:39:51;3.30;;;2.70;;
43154;SDS011;34212;51.018;13.586;2023-04-16T15:44:52;3.90;;;3.42;;
43154;SDS011;34212;51.018;13.586;2023-04-16T15:49:54;8.40;;;4.90;;
43154;SDS011;34212;51.018;13.586;2023-04-16T15:54:55;6.50;;;4.57;;
43154;SDS011;34212;51.018;13.586;2023-04-16T15:59:57;5.00;;;4.50;;
43154;SDS011;34212;51.018;13.586;2023-04-16T16:05:01;4.80;;;4.30;;
43154;SDS011;34212;51.018;13.586;2023-04-16T16:10:03;4.15;;;3.40;;
43154;SDS011;34212;51.018;13.586;2023-04-16T16:15:06;4.78;;;4.28;;
43154;SDS011;34212;51.018;13.586;2023-04-16T16:20:08;4.57;;;4.07;;
43154;SDS011;34212;51.018;13.586;2023-04-16T16:25:10;5.20;;;4.28;;
43154;SDS011;34212;51.018;13.586;2023-04-16T16:30:12;5.90;;;5.28;;
43154;SDS011;34212;51.018;13.586;2023-04-16T16:35:13;6.80;;;5.40;;
43154;SDS011;34212;51.018;13.586;2023-04-16T16:40:15;5.70;;;5.10;;
43154;SDS011;34212;51.018;13.586;2023-04-16T16:45:17;6.28;;;5.20;;
43154;SDS011;34212;51.018;13.586;2023-04-16T16:50:18;6.50;;;5.35;;
43154;SDS011;34212;51.018;13.586;2023-04-16T16:55:20;6.10;;;5.50;;
43154;SDS011;34212;51.018;13.586;2023-04-16T17:00:22;6.50;;;5.78;;
43154;SDS011;34212;51.018;13.586;2023-04-16T17:05:23;7.25;;;6.35;;
43154;SDS011;34212;51.018;13.586;2023-04-16T17:10:24;9.40;;;6.53;;
43154;SDS011;34212;51.018;13.586;2023-04-16T17:15:26;9.93;;;7.38;;
43154;SDS011;34212;51.018;13.586;2023-04-16T17:20:28;10.25;;;8.15;;
43154;SDS011;34212;51.018;13.586;2023-04-16T17:25:29;11.32;;;8.10;;
43154;SDS011;34212;51.018;13.586;2023-04-16T17:30:31;11.10;;;8.93;;
43154;SDS011;34212;51.018;13.586;2023-04-16T17:35:32;13.27;;;9.38;;
43154;SDS011;34212;51.018;13.586;2023-04-16T17:40:34;14.05;;;9.70;;
43154;SDS011;34212;51.018;13.586;2023-04-16T17:45:36;13.18;;;8.93;;
43154;SDS011;34212;51.018;13.586;2023-04-16T17:50:37;14.23;;;10.57;;
43154;SDS011;34212;51.018;13.586;2023-04-16T17:55:48;15.95;;;11.63;;
43154;SDS011;34212;51.018;13.586;2023-04-16T18:00:50;17.38;;;11.98;;
43154;SDS011;34212;51.018;13.586;2023-04-16T18:05:51;17.52;;;13.23;;
43154;SDS011;34212;51.018;13.586;2023-04-16T18:10:53;18.80;;;13.73;;
43154;SDS011;34212;51.018;13.586;2023-04-16T18:15:57;17.75;;;12.50;;
43154;SDS011;34212;51.018;13.586;2023-04-16T18:20:59;20.45;;;14.05;;
43154;SDS011;34212;51.018;13.586;2023-04-16T18:26:00;21.95;;;13.98;;
43154;SDS011;34212;51.018;13.586;2023-04-16T18:31:02;20.20;;;13.77;;
43154;SDS011;34212;51.018;13.586;2023-04-16T18:36:06;12.85;;;9.13;;
43154;SDS011;34212;51.018;13.586;2023-04-16T18:41:17;8.90;;;6.80;;
43154;SDS011;34212;51.018;13.586;2023-04-16T18:46:19;10.75;;;7.45;;
43154;SDS011;34212;51.018;13.586;2023-04-16T18:51:21;7.75;;;6.05;;
43154;SDS011;34212;51.018;13.586;2023-04-16T18:56:22;8.82;;;6.32;;
43154;SDS011;34212;51.018;13.586;2023-04-16T19:01:24;9.45;;;7.35;;
43154;SDS011;34212;51.018;13.586;2023-04-16T19:06:26;9.10;;;7.13;;
43154;SDS011;34212;51.018;13.586;2023-04-16T19:11:27;10.70;;;7.87;;
43154;SDS011;34212;51.018;13.586;2023-04-16T19:16:29;11.20;;;8.95;;
43154;SDS011;34212;51.018;13.586;2023-04-16T19:21:31;11.95;;;7.80;;
43154;SDS011;34212;51.018;13.586;2023-04-16T19:26:32;7.63;;;6.32;;
43154;SDS011;34212;51.018;13.586;2023-04-16T19:31:34;8.63;;;7.05;;
43154;SDS011;34212;51.018;13.586;2023-04-16T19:36:35;8.73;;;6.32;;
43154;SDS011;34212;51.018;13.586;2023-04-16T19:41:37;9.43;;;6.13;;
43154;SDS011;34212;51.018;13.586;2023-04-16T19:46:38;6.97;;;5.35;;
43154;SDS011;34212;51.018;13.586;2023-04-16T19:51:40;7.90;;;5.47;;
43154;SDS011;34212;51.018;13.586;2023-04-16T19:56:41;7.53;;;5.43;;
43154;SDS011;34212;51.018;13.586;2023-04-16T20:01:43;6.78;;;5.57;;
43154;SDS011;34212;51.018;13.586;2023-04-16T20:06:45;6.70;;;5.60;;
43154;SDS011;34212;51.018;13.586;2023-04-16T20:11:46;7.07;;;5.72;;
43154;SDS011;34212;51.018;13.586;2023-04-16T20:16:48;7.10;;;5.63;;
43154;SDS011;34212;51.018;13.586;2023-04-16T20:21:49;7.10;;;5.53;;
43154;SDS011;34212;51.018;13.586;2023-04-16T20:26:52;6.38;;;5.28;;
43154;SDS011;34212;51.018;13.586;2023-04-16T20:31:53;5.10;;;4.53;;
43154;SDS011;34212;51.018;13.586;2023-04-16T20:36:55;6.03;;;5.35;;
43154;SDS011;34212;51.018;13.586;2023-04-16T20:41:58;8.18;;;6.40;;
43154;SDS011;34212;51.018;13.586;2023-04-16T20:47:00;8.93;;;7.13;;
43154;SDS011;34212;51.018;13.586;2023-04-16T20:52:02;7.80;;;6.82;;
43154;SDS011;34212;51.018;13.586;2023-04-16T20:57:04;8.02;;;6.70;;
43154;SDS011;34212;51.018;13.586;2023-04-16T21:02:06;9.10;;;6.28;;
43154;SDS011;34212;51.018;13.586;2023-04-16T21:07:08;7.25;;;6.55;;
43154;SDS011;34212;51.018;13.586;2023-04-16T21:12:09;7.78;;;6.65;;
43154;SDS011;34212;51.018;13.586;2023-04-16T21:17:11;7.47;;;6.68;;
43154;SDS011;34212;51.018;13.586;2023-04-16T21:22:12;8.55;;;6.78;;
43154;SDS011;34212;51.018;13.586;2023-04-16T21:27:14;8.90;;;7.18;;
43154;SDS011;34212;51.018;13.586;2023-04-16T21:32:15;11.20;;;7.85;;
43154;SDS011;34212;51.018;13.586;2023-04-16T21:37:17;9.32;;;7.55;;
43154;SDS011;34212;51.018;13.586;2023-04-16T21:42:18;9.15;;;7.85;;
43154;SDS011;34212;51.018;13.586;2023-04-16T21:47:20;10.48;;;8.45;;
43154;SDS011;34212;51.018;13.586;2023-04-16T21:52:22;16.65;;;8.38;;
43154;SDS011;34212;51.018;13.586;2023-04-16T21:57:23;12.25;;;8.95;;
